sensor_id;sensor_type;location;lat;lon;timestamp;pressure;altitude;pressure_sealevel;temperature;humidity
21838;BME280;11081;45.946;6.140;2022-08-16T00:01:20;94648.31;;;20.32;65.12
21838;BME280;11081;45.946;6.140;2022-08-16T00:03:50;94649.09;;;20.32;65.00
21838;BME280;11081;45.946;6.140;2022-08-16T00:06:19;94646.75;;;20.31;65.10
21838;BME280;11081;45.946;6.140;2022-08-16T00:08:48;94649.69;;;20.29;65.57
21838;BME280;11081;45.946;6.140;2022-08-16T00:11:20;94648.91;;;20.29;65.55
21838;BME280;11081;45.946;6.140;2022-08-16T00:13:49;94648.13;;;20.28;65.28
21838;BME280;11081;45.946;6.140;2022-08-16T00:16:21;94641.25;;;20.27;65.22
21838;BME280;11081;45.946;6.140;2022-08-16T00:19:10;94633.59;;;20.26;66.02
21838;BME280;11081;45.946;6.140;2022-08-16T00:21:40;94623.56;;;20.23;66.05
21838;BME280;11081;45.946;6.140;2022-08-16T00:24:09;94627.88;;;20.19;65.54
21838;BME280;11081;45.946;6.140;2022-08-16T00:26:40;94623.75;;;20.13;65.30
21838;BME280;11081;45.946;6.140;2022-08-16T00:29:11;94626.69;;;20.11;64.98
21838;BME280;11081;45.946;6.140;2022-08-16T00:31:42;94630.22;;;20.06;65.17
21838;BME280;11081;45.946;6.140;2022-08-16T00:34:26;94633.75;;;20.16;64.82
21838;BME280;11081;45.946;6.140;2022-08-16T00:37:11;94629.63;;;20.09;65.04
21838;BME280;11081;45.946;6.140;2022-08-16T00:39:44;94633.28;;;20.14;65.27
21838;BME280;11081;45.946;6.140;2022-08-16T00:42:26;94628.47;;;20.16;65.25
21838;BME280;11081;45.946;6.140;2022-08-16T00:45:05;94619.63;;;20.06;65.24
21838;BME280;11081;45.946;6.140;2022-08-16T00:47:41;94627.09;;;20.04;65.36
21838;BME280;11081;45.946;6.140;2022-08-16T00:50:18;94629.75;;;20.04;65.58
21838;BME280;11081;45.946;6.140;2022-08-16T00:53:02;94626.09;;;20.00;65.68
21838;BME280;11081;45.946;6.140;2022-08-16T00:55:31;94623.94;;;20.02;65.84
21838;BME280;11081;45.946;6.140;2022-08-16T00:58:05;94625.53;;;20.03;65.62
21838;BME280;11081;45.946;6.140;2022-08-16T01:00:42;94620.22;;;20.03;65.67
21838;BME280;11081;45.946;6.140;2022-08-16T01:03:21;94615.50;;;20.00;65.79
21838;BME280;11081;45.946;6.140;2022-08-16T01:05:57;94610.69;;;20.02;65.24
21838;BME280;11081;45.946;6.140;2022-08-16T01:08:48;94598.03;;;19.99;65.32
21838;BME280;11081;45.946;6.140;2022-08-16T01:11:20;94603.34;;;19.99;65.04
21838;BME280;11081;45.946;6.140;2022-08-16T01:13:54;94610.22;;;20.00;64.97
21838;BME280;11081;45.946;6.140;2022-08-16T01:16:25;94605.47;;;19.97;64.79
21838;BME280;11081;45.946;6.140;2022-08-16T01:18:58;94601.19;;;20.01;64.87
21838;BME280;11081;45.946;6.140;2022-08-16T01:21:42;94589.50;;;20.02;64.74
21838;BME280;11081;45.946;6.140;2022-08-16T01:24:19;94594.31;;;20.00;64.84
21838;BME280;11081;45.946;6.140;2022-08-16T01:27:12;94594.88;;;19.97;64.82
21838;BME280;11081;45.946;6.140;2022-08-16T01:29:47;94589.00;;;19.87;65.26
21838;BME280;11081;45.946;6.140;2022-08-16T01:32:26;94591.13;;;19.71;65.65
21838;BME280;11081;45.946;6.140;2022-08-16T01:35:03;94592.69;;;19.72;65.46
21838;BME280;11081;45.946;6.140;2022-08-16T01:37:38;94587.97;;;19.69;65.64
21838;BME280;11081;45.946;6.140;2022-08-16T01:40:14;94584.63;;;19.77;65.07
21838;BME280;11081;45.946;6.140;2022-08-16T01:42:44;94595.22;;;19.77;65.09
21838;BME280;11081;45.946;6.140;2022-08-16T01:45:20;94600.63;;;19.72;65.42
21838;BME280;11081;45.946;6.140;2022-08-16T01:47:50;94594.25;;;19.73;65.37
21838;BME280;11081;45.946;6.140;2022-08-16T01:50:20;94603.19;;;19.77;64.88
21838;BME280;11081;45.946;6.140;2022-08-16T01:53:10;94600.44;;;19.68;65.55
21838;BME280;11081;45.946;6.140;2022-08-16T01:56:06;94597.59;;;19.65;65.47
21838;BME280;11081;45.946;6.140;2022-08-16T01:58:50;94598.56;;;19.69;64.88
21838;BME280;11081;45.946;6.140;2022-08-16T02:01:19;94605.03;;;19.76;64.96
21838;BME280;11081;45.946;6.140;2022-08-16T02:03:48;94612.09;;;19.67;64.70
21838;BME280;11081;45.946;6.140;2022-08-16T02:06:18;94609.59;;;19.57;64.82
21838;BME280;11081;45.946;6.140;2022-08-16T02:09:02;94605.16;;;19.53;64.67
21838;BME280;11081;45.946;6.140;2022-08-16T02:11:34;94605.25;;;19.47;64.48
21838;BME280;11081;45.946;6.140;2022-08-16T02:14:15;94607.31;;;19.50;64.78
21838;BME280;11081;45.946;6.140;2022-08-16T02:16:48;94605.94;;;19.53;64.51
21838;BME280;11081;45.946;6.140;2022-08-16T02:19:18;94608.38;;;19.49;64.64
21838;BME280;11081;45.946;6.140;2022-08-16T02:21:50;94605.75;;;19.49;64.54
21838;BME280;11081;45.946;6.140;2022-08-16T02:24:40;94609.16;;;19.50;64.81
21838;BME280;11081;45.946;6.140;2022-08-16T02:27:13;94605.53;;;19.46;64.74
21838;BME280;11081;45.946;6.140;2022-08-16T02:29:42;94609.25;;;19.45;64.87
21838;BME280;11081;45.946;6.140;2022-08-16T02:32:13;94603.19;;;19.44;65.08
21838;BME280;11081;45.946;6.140;2022-08-16T02:35:03;94600.81;;;19.43;65.15
21838;BME280;11081;45.946;6.140;2022-08-16T02:37:35;94604.25;;;19.43;65.10
21838;BME280;11081;45.946;6.140;2022-08-16T02:40:20;94601.41;;;19.40;65.65
21838;BME280;11081;45.946;6.140;2022-08-16T02:42:50;94601.41;;;19.40;65.56
21838;BME280;11081;45.946;6.140;2022-08-16T02:45:23;94608.63;;;19.34;65.53
21838;BME280;11081;45.946;6.140;2022-08-16T02:47:54;94606.06;;;19.29;66.01
21838;BME280;11081;45.946;6.140;2022-08-16T02:50:43;94598.22;;;19.24;65.89
21838;BME280;11081;45.946;6.140;2022-08-16T02:53:28;94595.06;;;19.22;66.09
21838;BME280;11081;45.946;6.140;2022-08-16T02:55:57;94605.66;;;19.22;66.34
21838;BME280;11081;45.946;6.140;2022-08-16T02:58:27;94606.22;;;19.19;66.34
21838;BME280;11081;45.946;6.140;2022-08-16T03:00:59;94604.66;;;19.18;65.96
21838;BME280;11081;45.946;6.140;2022-08-16T03:03:30;94598.78;;;19.21;65.99
21838;BME280;11081;45.946;6.140;2022-08-16T03:06:22;94593.84;;;19.14;65.80
21838;BME280;11081;45.946;6.140;2022-08-16T03:09:17;94597.78;;;19.17;65.74
21838;BME280;11081;45.946;6.140;2022-08-16T03:11:50;94604.66;;;19.18;65.69
21838;BME280;11081;45.946;6.140;2022-08-16T03:14:20;94602.50;;;19.20;65.65
21838;BME280;11081;45.946;6.140;2022-08-16T03:16:54;94598.88;;;19.16;65.34
21838;BME280;11081;45.946;6.140;2022-08-16T03:19:32;94608.44;;;19.12;65.51
21838;BME280;11081;45.946;6.140;2022-08-16T03:22:21;94598.50;;;19.04;65.44
21838;BME280;11081;45.946;6.140;2022-08-16T03:24:57;94594.28;;;19.03;65.50
21838;BME280;11081;45.946;6.140;2022-08-16T03:27:29;94593.22;;;19.04;65.94
21838;BME280;11081;45.946;6.140;2022-08-16T03:30:06;94586.34;;;19.03;65.87
21838;BME280;11081;45.946;6.140;2022-08-16T03:32:44;94587.94;;;19.04;65.57
21838;BME280;11081;45.946;6.140;2022-08-16T03:35:20;94586.56;;;19.06;65.68
21838;BME280;11081;45.946;6.140;2022-08-16T03:38:03;94591.06;;;19.06;65.93
21838;BME280;11081;45.946;6.140;2022-08-16T03:40:52;94604.16;;;18.97;66.12
21838;BME280;11081;45.946;6.140;2022-08-16T03:43:23;94606.53;;;18.99;66.07
21838;BME280;11081;45.946;6.140;2022-08-16T03:46:16;94597.06;;;18.93;66.35
21838;BME280;11081;45.946;6.140;2022-08-16T03:49:06;94591.38;;;18.85;66.44
21838;BME280;11081;45.946;6.140;2022-08-16T03:51:39;94591.38;;;18.85;66.63
21838;BME280;11081;45.946;6.140;2022-08-16T03:54:10;94590.94;;;18.78;66.78
21838;BME280;11081;45.946;6.140;2022-08-16T03:56:41;94590.38;;;18.81;66.38
21838;BME280;11081;45.946;6.140;2022-08-16T03:59:28;94582.94;;;18.83;66.67
21838;BME280;11081;45.946;6.140;2022-08-16T04:02:02;94587.66;;;18.86;66.35
21838;BME280;11081;45.946;6.140;2022-08-16T04:04:49;94585.50;;;18.88;66.24
21838;BME280;11081;45.946;6.140;2022-08-16T04:07:20;94587.84;;;18.90;66.10
21838;BME280;11081;45.946;6.140;2022-08-16T04:09:51;94580.22;;;18.88;66.18
21838;BME280;11081;45.946;6.140;2022-08-16T04:12:19;94593.72;;;18.87;66.49
21838;BME280;11081;45.946;6.140;2022-08-16T04:15:10;94586.06;;;18.85;66.99
21838;BME280;11081;45.946;6.140;2022-08-16T04:17:53;94583.94;;;18.87;66.76
21838;BME280;11081;45.946;6.140;2022-08-16T04:20:22;94585.78;;;18.87;66.91
21838;BME280;11081;45.946;6.140;2022-08-16T04:23:04;94586.66;;;18.82;66.91
21838;BME280;11081;45.946;6.140;2022-08-16T04:25:35;94594.09;;;18.80;66.84
21838;BME280;11081;45.946;6.140;2022-08-16T04:28:07;94591.16;;;18.82;66.71
21838;BME280;11081;45.946;6.140;2022-08-16T04:30:56;94599.88;;;18.82;66.88
21838;BME280;11081;45.946;6.140;2022-08-16T04:33:26;94606.22;;;18.81;67.15
21838;BME280;11081;45.946;6.140;2022-08-16T04:35:57;94591.16;;;18.82;67.04
21838;BME280;11081;45.946;6.140;2022-08-16T04:38:28;94589.38;;;18.77;67.20
21838;BME280;11081;45.946;6.140;2022-08-16T04:40:57;94595.22;;;18.74;67.26
21838;BME280;11081;45.946;6.140;2022-08-16T04:43:26;94602.09;;;18.75;66.89
21838;BME280;11081;45.946;6.140;2022-08-16T04:45:56;94598.13;;;18.73;66.64
21838;BME280;11081;45.946;6.140;2022-08-16T04:48:34;94604.22;;;18.73;66.85
21838;BME280;11081;45.946;6.140;2022-08-16T04:51:09;94608.50;;;18.69;67.22
21838;BME280;11081;45.946;6.140;2022-08-16T04:53:45;94600.06;;;18.67;66.83
21838;BME280;11081;45.946;6.140;2022-08-16T04:56:17;94619.88;;;18.70;67.08
21838;BME280;11081;45.946;6.140;2022-08-16T04:58:46;94605.34;;;18.67;67.08
21838;BME280;11081;45.946;6.140;2022-08-16T05:01:15;94615.94;;;18.67;67.10
21838;BME280;11081;45.946;6.140;2022-08-16T05:03:46;94613.34;;;18.62;67.66
21838;BME280;11081;45.946;6.140;2022-08-16T05:06:29;94618.06;;;18.65;67.85
21838;BME280;11081;45.946;6.140;2022-08-16T05:09:18;94613.78;;;18.69;68.12
21838;BME280;11081;45.946;6.140;2022-08-16T05:11:52;94611.63;;;18.71;68.47
21838;BME280;11081;45.946;6.140;2022-08-16T05:14:25;94608.81;;;18.86;68.07
21838;BME280;11081;45.946;6.140;2022-08-16T05:17:13;94607.66;;;18.93;68.06
21838;BME280;11081;45.946;6.140;2022-08-16T05:19:43;94606.66;;;18.88;68.19
21838;BME280;11081;45.946;6.140;2022-08-16T05:22:23;94593.50;;;18.83;69.05
21838;BME280;11081;45.946;6.140;2022-08-16T05:24:56;94601.94;;;18.85;68.59
21838;BME280;11081;45.946;6.140;2022-08-16T05:27:24;94607.22;;;18.85;68.97
21838;BME280;11081;45.946;6.140;2022-08-16T05:29:53;94607.81;;;18.82;69.39
21838;BME280;11081;45.946;6.140;2022-08-16T05:32:31;94604.66;;;18.80;69.83
21838;BME280;11081;45.946;6.140;2022-08-16T05:35:15;94601.53;;;18.78;70.06
21838;BME280;11081;45.946;6.140;2022-08-16T05:38:02;94604.16;;;18.78;70.34
21838;BME280;11081;45.946;6.140;2022-08-16T05:40:50;94607.81;;;18.82;70.09
21838;BME280;11081;45.946;6.140;2022-08-16T05:43:28;94604.50;;;18.91;70.55
21838;BME280;11081;45.946;6.140;2022-08-16T05:46:09;94604.50;;;18.91;70.45
21838;BME280;11081;45.946;6.140;2022-08-16T05:49:03;94610.09;;;18.89;70.83
21838;BME280;11081;45.946;6.140;2022-08-16T05:51:40;94607.81;;;18.82;71.35
21838;BME280;11081;45.946;6.140;2022-08-16T05:54:15;94613.50;;;18.89;70.47
21838;BME280;11081;45.946;6.140;2022-08-16T05:56:52;94617.72;;;18.91;70.37
21838;BME280;11081;45.946;6.140;2022-08-16T05:59:22;94606.06;;;18.92;69.83
21838;BME280;11081;45.946;6.140;2022-08-16T06:01:54;94611.09;;;18.93;70.22
21838;BME280;11081;45.946;6.140;2022-08-16T06:04:28;94616.09;;;18.95;70.08
21838;BME280;11081;45.946;6.140;2022-08-16T06:07:08;94616.09;;;18.95;69.53
21838;BME280;11081;45.946;6.140;2022-08-16T06:10:04;94607.66;;;18.93;71.30
21838;BME280;11081;45.946;6.140;2022-08-16T06:12:36;94618.22;;;18.93;71.79
21838;BME280;11081;45.946;6.140;2022-08-16T06:15:11;94621.31;;;19.00;71.76
21838;BME280;11081;45.946;6.140;2022-08-16T06:17:42;94623.41;;;19.03;71.21
21838;BME280;11081;45.946;6.140;2022-08-16T06:20:21;94618.81;;;19.08;71.60
21838;BME280;11081;45.946;6.140;2022-08-16T06:23:05;94633.28;;;19.16;71.30
21838;BME280;11081;45.946;6.140;2022-08-16T06:25:59;94634.69;;;19.27;70.07
21838;BME280;11081;45.946;6.140;2022-08-16T06:28:33;94640.25;;;19.44;69.11
21838;BME280;11081;45.946;6.140;2022-08-16T06:31:07;94632.16;;;19.55;68.51
21838;BME280;11081;45.946;6.140;2022-08-16T06:33:40;94628.88;;;19.63;67.78
21838;BME280;11081;45.946;6.140;2022-08-16T06:36:14;94633.47;;;19.71;66.83
21838;BME280;11081;45.946;6.140;2022-08-16T06:38:55;94629.09;;;19.80;66.21
21838;BME280;11081;45.946;6.140;2022-08-16T06:41:37;94630.00;;;19.89;65.77
21838;BME280;11081;45.946;6.140;2022-08-16T06:44:16;94632.56;;;19.94;65.49
21838;BME280;11081;45.946;6.140;2022-08-16T06:46:48;94629.03;;;19.99;65.15
21838;BME280;11081;45.946;6.140;2022-08-16T06:49:18;94619.63;;;20.06;65.13
21838;BME280;11081;45.946;6.140;2022-08-16T06:51:47;94617.47;;;20.08;64.57
21838;BME280;11081;45.946;6.140;2022-08-16T06:54:24;94625.31;;;20.14;64.65
21838;BME280;11081;45.946;6.140;2022-08-16T06:56:52;94623.56;;;20.23;64.71
21838;BME280;11081;45.946;6.140;2022-08-16T06:59:22;94629.25;;;20.30;64.72
21838;BME280;11081;45.946;6.140;2022-08-16T07:01:55;94625.91;;;20.38;64.44
21838;BME280;11081;45.946;6.140;2022-08-16T07:04:26;94627.94;;;20.46;64.38
21838;BME280;11081;45.946;6.140;2022-08-16T07:07:05;94624.94;;;20.61;64.28
21838;BME280;11081;45.946;6.140;2022-08-16T07:09:38;94628.38;;;20.76;63.70
21838;BME280;11081;45.946;6.140;2022-08-16T07:12:07;94630.03;;;20.85;63.58
21838;BME280;11081;45.946;6.140;2022-08-16T07:14:39;94635.13;;;20.95;62.86
21838;BME280;11081;45.946;6.140;2022-08-16T07:17:12;94649.06;;;21.01;62.23
21838;BME280;11081;45.946;6.140;2022-08-16T07:19:47;94635.88;;;21.10;62.66
21838;BME280;11081;45.946;6.140;2022-08-16T07:23:04;94642.75;;;21.24;61.16
21838;BME280;11081;45.946;6.140;2022-08-16T07:25:48;94638.16;;;21.39;60.53
21838;BME280;11081;45.946;6.140;2022-08-16T07:28:19;94634.69;;;21.52;59.75
21838;BME280;11081;45.946;6.140;2022-08-16T07:30:52;94640.22;;;21.64;59.66
21838;BME280;11081;45.946;6.140;2022-08-16T07:33:41;94634.69;;;21.74;59.53
21838;BME280;11081;45.946;6.140;2022-08-16T07:36:31;94636.97;;;21.67;58.67
21838;BME280;11081;45.946;6.140;2022-08-16T07:39:00;94638.91;;;21.53;59.18
21838;BME280;11081;45.946;6.140;2022-08-16T07:41:35;94646.41;;;21.51;58.74
21838;BME280;11081;45.946;6.140;2022-08-16T07:44:06;94651.88;;;21.54;58.37
21838;BME280;11081;45.946;6.140;2022-08-16T07:46:44;94654.59;;;21.41;58.64
21838;BME280;11081;45.946;6.140;2022-08-16T07:49:16;94659.81;;;21.46;58.34
21838;BME280;11081;45.946;6.140;2022-08-16T07:51:45;94659.72;;;21.59;57.69
21838;BME280;11081;45.946;6.140;2022-08-16T07:54:15;94659.31;;;21.66;57.74
21838;BME280;11081;45.946;6.140;2022-08-16T07:57:00;94659.25;;;21.80;57.54
21838;BME280;11081;45.946;6.140;2022-08-16T07:59:29;94651.91;;;21.85;57.57
21838;BME280;11081;45.946;6.140;2022-08-16T08:02:12;94653.00;;;22.07;57.39
21838;BME280;11081;45.946;6.140;2022-08-16T08:04:52;94653.09;;;22.24;57.16
21838;BME280;11081;45.946;6.140;2022-08-16T08:07:20;94653.28;;;22.28;57.20
21838;BME280;11081;45.946;6.140;2022-08-16T08:09:53;94657.75;;;22.10;57.04
21838;BME280;11081;45.946;6.140;2022-08-16T08:12:23;94651.06;;;21.99;56.95
21838;BME280;11081;45.946;6.140;2022-08-16T08:15:03;94650.13;;;21.95;56.78
21838;BME280;11081;45.946;6.140;2022-08-16T08:17:36;94655.19;;;22.05;56.66
21838;BME280;11081;45.946;6.140;2022-08-16T08:20:15;94650.91;;;22.26;55.57
21838;BME280;11081;45.946;6.140;2022-08-16T08:22:56;94656.31;;;22.43;55.80
21838;BME280;11081;45.946;6.140;2022-08-16T08:25:28;94649.16;;;22.52;55.50
21838;BME280;11081;45.946;6.140;2022-08-16T08:28:19;94653.72;;;22.61;55.17
21838;BME280;11081;45.946;6.140;2022-08-16T08:30:50;94650.44;;;22.64;54.78
21838;BME280;11081;45.946;6.140;2022-08-16T08:33:26;94663.25;;;22.62;55.34
21838;BME280;11081;45.946;6.140;2022-08-16T08:35:55;94659.88;;;22.70;54.67
21838;BME280;11081;45.946;6.140;2022-08-16T08:38:27;94655.44;;;22.57;54.33
21838;BME280;11081;45.946;6.140;2022-08-16T08:41:15;94660.75;;;22.57;54.63
21838;BME280;11081;45.946;6.140;2022-08-16T08:43:51;94653.50;;;22.48;53.63
21838;BME280;11081;45.946;6.140;2022-08-16T08:46:20;94656.31;;;22.43;54.11
21838;BME280;11081;45.946;6.140;2022-08-16T08:48:52;94658.56;;;22.59;53.21
21838;BME280;11081;45.946;6.140;2022-08-16T08:51:28;94663.31;;;22.79;53.53
21838;BME280;11081;45.946;6.140;2022-08-16T08:54:02;94672.47;;;22.95;52.97
21838;BME280;11081;45.946;6.140;2022-08-16T08:56:37;94669.34;;;22.93;53.03
21838;BME280;11081;45.946;6.140;2022-08-16T08:59:26;94667.91;;;22.87;52.63
21838;BME280;11081;45.946;6.140;2022-08-16T09:01:55;94668.72;;;22.96;52.30
21838;BME280;11081;45.946;6.140;2022-08-16T09:04:31;94669.34;;;22.93;53.40
21838;BME280;11081;45.946;6.140;2022-08-16T09:07:02;94662.78;;;22.99;53.38
21838;BME280;11081;45.946;6.140;2022-08-16T09:09:33;94670.28;;;22.97;53.77
21838;BME280;11081;45.946;6.140;2022-08-16T09:12:08;94664.88;;;22.80;54.12
21838;BME280;11081;45.946;6.140;2022-08-16T09:15:11;94664.19;;;22.97;53.39
21838;BME280;11081;45.946;6.140;2022-08-16T09:17:43;94663.75;;;23.21;53.04
21838;BME280;11081;45.946;6.140;2022-08-16T09:20:22;94659.06;;;23.35;52.22
21838;BME280;11081;45.946;6.140;2022-08-16T09:22:52;94656.22;;;23.40;52.60
21838;BME280;11081;45.946;6.140;2022-08-16T09:25:28;94656.22;;;23.40;52.75
21838;BME280;11081;45.946;6.140;2022-08-16T09:28:03;94655.31;;;23.36;51.76
21838;BME280;11081;45.946;6.140;2022-08-16T09:30:56;94657.16;;;23.44;51.93
21838;BME280;11081;45.946;6.140;2022-08-16T09:33:24;94652.81;;;23.65;51.84
21838;BME280;11081;45.946;6.140;2022-08-16T09:35:58;94655.31;;;23.79;51.12
21838;BME280;11081;45.946;6.140;2022-08-16T09:38:26;94662.03;;;23.85;50.95
21838;BME280;11081;45.946;6.140;2022-08-16T09:40:58;94648.53;;;23.99;50.63
21838;BME280;11081;45.946;6.140;2022-08-16T09:43:27;94652.41;;;24.10;50.61
21838;BME280;11081;45.946;6.140;2022-08-16T09:46:16;94655.53;;;24.12;50.86
21838;BME280;11081;45.946;6.140;2022-08-16T09:49:04;94654.28;;;24.18;50.29
21838;BME280;11081;45.946;6.140;2022-08-16T09:51:34;94649.06;;;24.30;50.07
21838;BME280;11081;45.946;6.140;2022-08-16T09:54:04;94651.41;;;24.41;49.32
21838;BME280;11081;45.946;6.140;2022-08-16T09:56:37;94648.69;;;24.49;49.71
21838;BME280;11081;45.946;6.140;2022-08-16T09:59:21;94653.44;;;24.44;49.64
21838;BME280;11081;45.946;6.140;2022-08-16T10:01:52;94645.44;;;24.44;49.26
21838;BME280;11081;45.946;6.140;2022-08-16T10:04:21;94652.41;;;24.57;49.39
21838;BME280;11081;45.946;6.140;2022-08-16T10:07:00;94645.34;;;24.61;48.93
21838;BME280;11081;45.946;6.140;2022-08-16T10:09:41;94656.31;;;24.68;49.41
21838;BME280;11081;45.946;6.140;2022-08-16T10:12:22;94650.44;;;24.75;49.31
21838;BME280;11081;45.946;6.140;2022-08-16T10:15:09;94648.53;;;24.84;48.44
21838;BME280;11081;45.946;6.140;2022-08-16T10:17:45;94646.25;;;24.94;48.27
21838;BME280;11081;45.946;6.140;2022-08-16T10:20:29;94641.03;;;25.07;48.01
21838;BME280;11081;45.946;6.140;2022-08-16T10:23:00;94644.41;;;25.16;47.59
21838;BME280;11081;45.946;6.140;2022-08-16T10:25:34;94642.72;;;25.11;48.12
21838;BME280;11081;45.946;6.140;2022-08-16T10:28:23;94635.28;;;25.17;47.80
21838;BME280;11081;45.946;6.140;2022-08-16T10:30:56;94632.16;;;25.15;47.39
21838;BME280;11081;45.946;6.140;2022-08-16T10:33:27;94640.25;;;25.27;47.17
21838;BME280;11081;45.946;6.140;2022-08-16T10:36:00;94639.34;;;25.23;46.54
21838;BME280;11081;45.946;6.140;2022-08-16T10:38:30;94639.19;;;25.40;46.13
21838;BME280;11081;45.946;6.140;2022-08-16T10:41:03;94635.94;;;25.56;46.28
21838;BME280;11081;45.946;6.140;2022-08-16T10:43:33;94633.72;;;25.58;45.80
21838;BME280;11081;45.946;6.140;2022-08-16T10:46:02;94639.34;;;25.65;45.39
21838;BME280;11081;45.946;6.140;2022-08-16T10:48:51;94629.69;;;25.72;45.16
21838;BME280;11081;45.946;6.140;2022-08-16T10:51:19;94637.63;;;25.81;43.97
21838;BME280;11081;45.946;6.140;2022-08-16T10:54:00;94635.00;;;25.93;43.61
21838;BME280;11081;45.946;6.140;2022-08-16T10:56:31;94640.16;;;26.10;43.24
21838;BME280;11081;45.946;6.140;2022-08-16T10:59:19;94633.47;;;26.17;43.45
21838;BME280;11081;45.946;6.140;2022-08-16T11:02:04;94632.28;;;26.26;43.46
21838;BME280;11081;45.946;6.140;2022-08-16T11:04:54;94630.06;;;26.28;42.66
21838;BME280;11081;45.946;6.140;2022-08-16T11:07:39;94620.72;;;26.01;43.38
21838;BME280;11081;45.946;6.140;2022-08-16T11:10:10;94623.41;;;26.01;43.43
21838;BME280;11081;45.946;6.140;2022-08-16T11:12:59;94623.03;;;26.24;43.14
21838;BME280;11081;45.946;6.140;2022-08-16T11:15:47;94625.06;;;26.39;42.57
21838;BME280;11081;45.946;6.140;2022-08-16T11:18:22;94627.75;;;26.51;42.79
21838;BME280;11081;45.946;6.140;2022-08-16T11:21:12;94625.53;;;26.53;42.14
21838;BME280;11081;45.946;6.140;2022-08-16T11:23:55;94627.09;;;26.54;40.63
21838;BME280;11081;45.946;6.140;2022-08-16T11:26:26;94629.75;;;26.54;41.64
21838;BME280;11081;45.946;6.140;2022-08-16T11:28:56;94620.63;;;26.67;41.61
21838;BME280;11081;45.946;6.140;2022-08-16T11:31:41;94619.28;;;26.73;40.29
21838;BME280;11081;45.946;6.140;2022-08-16T11:34:19;94620.25;;;26.81;40.48
21838;BME280;11081;45.946;6.140;2022-08-16T11:36:48;94616.56;;;26.86;38.85
21838;BME280;11081;45.946;6.140;2022-08-16T11:39:26;94616.13;;;26.96;39.91
21838;BME280;11081;45.946;6.140;2022-08-16T11:41:55;94609.88;;;27.04;40.11
21838;BME280;11081;45.946;6.140;2022-08-16T11:44:24;94611.22;;;27.10;39.89
21838;BME280;11081;45.946;6.140;2022-08-16T11:47:12;94611.63;;;27.24;39.69
21838;BME280;11081;45.946;6.140;2022-08-16T11:49:40;94606.81;;;27.30;39.98
21838;BME280;11081;45.946;6.140;2022-08-16T11:52:09;94610.06;;;27.23;38.95
21838;BME280;11081;45.946;6.140;2022-08-16T11:54:43;94611.00;;;27.03;38.65
21838;BME280;11081;45.946;6.140;2022-08-16T11:57:19;94600.97;;;27.00;39.16
21838;BME280;11081;45.946;6.140;2022-08-16T11:59:47;94604.31;;;27.09;38.58
21838;BME280;11081;45.946;6.140;2022-08-16T12:02:19;94596.03;;;27.14;37.75
21838;BME280;11081;45.946;6.140;2022-08-16T12:04:58;94597.78;;;27.22;38.00
21838;BME280;11081;45.946;6.140;2022-08-16T12:07:28;94593.28;;;27.26;36.78
21838;BME280;11081;45.946;6.140;2022-08-16T12:10:00;94594.38;;;27.38;37.21
21838;BME280;11081;45.946;6.140;2022-08-16T12:12:28;94582.72;;;27.46;36.87
21838;BME280;11081;45.946;6.140;2022-08-16T12:14:59;94590.50;;;27.63;37.90
21838;BME280;11081;45.946;6.140;2022-08-16T12:17:28;94589.13;;;27.69;36.48
21838;BME280;11081;45.946;6.140;2022-08-16T12:19:58;94602.31;;;27.74;36.08
21838;BME280;11081;45.946;6.140;2022-08-16T12:22:27;94598.41;;;27.72;35.88
21838;BME280;11081;45.946;6.140;2022-08-16T12:24:59;94589.13;;;27.69;35.36
21838;BME280;11081;45.946;6.140;2022-08-16T12:27:30;94584.16;;;27.83;36.11
21838;BME280;11081;45.946;6.140;2022-08-16T12:29:58;94594.00;;;27.79;35.69
21838;BME280;11081;45.946;6.140;2022-08-16T12:32:27;94589.34;;;27.76;35.53
21838;BME280;11081;45.946;6.140;2022-08-16T12:35:08;94585.69;;;27.84;36.27
21838;BME280;11081;45.946;6.140;2022-08-16T12:37:39;94583.66;;;27.93;36.29
21838;BME280;11081;45.946;6.140;2022-08-16T12:40:10;94585.47;;;28.05;36.61
21838;BME280;11081;45.946;6.140;2022-08-16T12:42:51;94580.63;;;27.95;36.37
21838;BME280;11081;45.946;6.140;2022-08-16T12:45:25;94584.34;;;27.90;36.35
21838;BME280;11081;45.946;6.140;2022-08-16T12:47:53;94578.53;;;28.04;35.78
21838;BME280;11081;45.946;6.140;2022-08-16T12:51:00;94580.00;;;28.02;35.52
21838;BME280;11081;45.946;6.140;2022-08-16T12:53:30;94577.06;;;28.07;35.95
21838;BME280;11081;45.946;6.140;2022-08-16T12:56:06;94566.34;;;28.07;35.66
21838;BME280;11081;45.946;6.140;2022-08-16T12:58:35;94573.94;;;28.05;35.78
21838;BME280;11081;45.946;6.140;2022-08-16T13:01:18;94569.44;;;28.09;35.58
21838;BME280;11081;45.946;6.140;2022-08-16T13:03:49;94568.09;;;28.15;35.58
21838;BME280;11081;45.946;6.140;2022-08-16T13:06:37;94562.28;;;28.29;35.84
21838;BME280;11081;45.946;6.140;2022-08-16T13:09:08;94560.28;;;28.41;35.23
21838;BME280;11081;45.946;6.140;2022-08-16T13:11:53;94558.91;;;28.47;35.08
21838;BME280;11081;45.946;6.140;2022-08-16T13:14:28;94562.69;;;28.62;35.07
21838;BME280;11081;45.946;6.140;2022-08-16T13:17:00;94554.97;;;28.76;35.06
21838;BME280;11081;45.946;6.140;2022-08-16T13:19:32;94551.75;;;28.71;34.53
21838;BME280;11081;45.946;6.140;2022-08-16T13:22:22;94554.31;;;28.83;34.42
21838;BME280;11081;45.946;6.140;2022-08-16T13:24:53;94548.50;;;28.97;34.44
21838;BME280;11081;45.946;6.140;2022-08-16T13:27:22;94539.59;;;29.12;34.79
21838;BME280;11081;45.946;6.140;2022-08-16T13:30:11;94536.72;;;29.21;34.67
21838;BME280;11081;45.946;6.140;2022-08-16T13:32:59;94534.56;;;29.10;34.33
21838;BME280;11081;45.946;6.140;2022-08-16T13:35:40;94532.03;;;29.18;35.09
21838;BME280;11081;45.946;6.140;2022-08-16T13:38:11;94526.66;;;29.37;35.15
21838;BME280;11081;45.946;6.140;2022-08-16T13:40:53;94518.72;;;29.44;34.70
21838;BME280;11081;45.946;6.140;2022-08-16T13:43:24;94533.44;;;29.50;34.54
21838;BME280;11081;45.946;6.140;2022-08-16T13:45:53;94527.50;;;29.60;34.34
21838;BME280;11081;45.946;6.140;2022-08-16T13:48:22;94522.25;;;29.67;34.93